Time;durP1;ratioP1;P1;durP2;ratioP2;P2;SDS_P1;SDS_P2;PMS_P1;PMS_P2;Temp;Humidity;BMP_temperature;BMP_pressure;BME280_temperature;BME280_humidity;BME280_pressure;Samples;Min_cycle;Max_cycle;Signal;HPM_P1;HPM_P2
2022/05/30 00:03:55;;;;;;;;;;;11.30;1.00;;;;;;10329340;28;84191;-46
2022/05/30 00:08:56;;;;;;;;;;;11.30;1.00;;;;;;10330723;28;84840;-47
2022/05/30 00:13:57;;;;;;;;;;;11.40;1.00;;;;;;10329328;28;84755;-44
2022/05/30 00:18:57;;;;;;;;;;;11.30;1.00;;;;;;10329533;28;84283;-47
2022/05/30 00:23:58;;;;;;;;;;;11.30;1.00;;;;;;10328868;28;85390;-43
2022/05/30 00:28:59;;;;;;;;;;;11.20;1.00;;;;;;10327720;28;84825;-46
2022/05/30 00:33:59;;;;;;;;;;;11.20;1.00;;;;;;10329497;28;84074;-47
2022/05/30 00:39:00;;;;;;;;;;;11.20;1.00;;;;;;10329703;28;84097;-45
2022/05/30 00:44:01;;;;;;;;;;;11.20;1.00;;;;;;10310786;28;86857;-44
2022/05/30 00:49:05;;;;;;;;;;;11.20;1.00;;;;;;10281607;28;85242;-42
2022/05/30 00:54:07;;;;;;;;;;;11.10;1.00;;;;;;10287718;28;84693;-45
2022/05/30 00:59:09;;;;;;;;;;;11.10;1.00;;;;;;10288624;28;84323;-43
2022/05/30 01:09:36;;;;;;;;;;;11.00;1.00;;;;;;10310562;28;85668;-42
2022/05/30 01:14:38;;;;;;;;;;;11.00;1.00;;;;;;10311134;28;84525;-42
2022/05/30 01:19:57;;;;;;;;;;;11.00;1.00;;;;;;10307971;28;85874;-45
2022/05/30 01:25:01;;;;;;;;;;;10.90;1.00;;;;;;10310028;28;87004;-47
2022/05/30 01:30:35;;;;;;;;;;;10.90;1.00;;;;;;10267892;28;86888;-47
2022/05/30 01:35:36;;;;;;;;;;;10.90;1.00;;;;;;10269395;28;86872;-44
2022/05/30 01:40:40;;;;;;;;;;;10.80;1.00;;;;;;10286273;28;85796;-44
2022/05/30 01:45:41;;;;;;;;;;;10.70;1.00;;;;;;10308830;28;86020;-45
2022/05/30 01:50:43;;;;;;;;;;;10.70;1.00;;;;;;10309848;28;85880;-43
2022/05/30 01:55:55;;;;;;;;;;;10.60;1.00;;;;;;10296039;28;84916;-43
2022/05/30 02:00:55;;;;;;;;;;;10.50;1.00;;;;;;10286563;28;85668;-47
2022/05/30 02:05:56;;;;;;;;;;;10.30;1.00;;;;;;10268171;28;86053;-45
2022/05/30 02:10:57;;;;;;;;;;;10.20;1.00;;;;;;10268209;28;86436;-45
2022/05/30 02:21:39;;;;;;;;;;;10.00;1.00;;;;;;10200635;28;84881;-47
2022/05/30 02:26:40;;;;;;;;;;;10.00;1.00;;;;;;10261361;28;85980;-45
2022/05/30 02:31:43;;;;;;;;;;;9.90;1.00;;;;;;10327254;28;84789;-47
2022/05/30 02:36:44;;;;;;;;;;;9.90;1.00;;;;;;10308117;28;86024;-45
2022/05/30 02:41:47;;;;;;;;;;;9.90;1.00;;;;;;10294710;28;86808;-44
2022/05/30 02:46:51;;;;;;;;;;;9.80;1.00;;;;;;10293111;22;86868;-55
2022/05/30 02:51:51;;;;;;;;;;;9.90;1.00;;;;;;10304600;28;86168;-50
2022/05/30 02:56:53;;;;;;;;;;;9.80;1.00;;;;;;10286829;28;86498;-52
2022/05/30 03:01:54;;;;;;;;;;;9.80;1.00;;;;;;10285374;28;86894;-48
2022/05/30 03:06:55;;;;;;;;;;;9.70;1.00;;;;;;10288486;28;84121;-50
2022/05/30 03:11:56;;;;;;;;;;;9.60;1.00;;;;;;10286806;28;86851;-50
2022/05/30 03:16:57;;;;;;;;;;;9.60;1.00;;;;;;10286848;28;86497;-51
2022/05/30 03:21:58;;;;;;;;;;;9.70;1.00;;;;;;10285089;28;86076;-49
2022/05/30 03:26:58;;;;;;;;;;;9.70;1.00;;;;;;10283602;28;86705;-48
2022/05/30 03:31:59;;;;;;;;;;;9.80;1.00;;;;;;10286133;28;85620;-51
2022/05/30 03:37:00;;;;;;;;;;;9.80;1.00;;;;;;10288078;28;86585;-50
2022/05/30 03:42:14;;;;;;;;;;;9.80;1.00;;;;;;10286146;28;85710;-49
2022/05/30 03:47:35;;;;;;;;;;;9.80;1.00;;;;;;10286335;28;86953;-48
2022/05/30 03:52:36;;;;;;;;;;;9.90;1.00;;;;;;10286588;28;85630;-50
2022/05/30 03:57:37;;;;;;;;;;;10.00;1.00;;;;;;10287371;28;86076;-52
2022/05/30 04:02:38;;;;;;;;;;;10.00;1.00;;;;;;10288338;28;86710;-48
2022/05/30 04:07:39;;;;;;;;;;;10.00;1.00;;;;;;10292391;28;84115;-50
2022/05/30 04:13:07;;;;;;;;;;;10.10;1.00;;;;;;10272904;28;84418;-50
2022/05/30 04:18:46;;;;;;;;;;;10.10;1.00;;;;;;10163227;28;84699;-48
2022/05/30 04:23:47;;;;;;;;;;;10.10;1.00;;;;;;10230030;28;86887;-48
2022/05/30 04:28:52;;;;;;;;;;;10.10;1.00;;;;;;10285739;28;85785;-48
2022/05/30 04:34:21;;;;;;;;;;;10.10;1.00;;;;;;10281045;28;85721;-49
2022/05/30 04:39:25;;;;;;;;;;;10.20;1.00;;;;;;10286579;28;85981;-48
2022/05/30 04:44:48;;;;;;;;;;;10.40;1.00;;;;;;10284635;28;85502;-52
2022/05/30 04:50:13;;;;;;;;;;;10.30;1.00;;;;;;10286436;28;84379;-57
2022/05/30 04:55:15;;;;;;;;;;;10.40;1.00;;;;;;10287650;28;86684;-51
2022/05/30 05:00:25;;;;;;;;;;;10.40;1.00;;;;;;10287083;28;86800;-53
2022/05/30 05:05:26;;;;;;;;;;;10.50;1.00;;;;;;10286451;28;85718;-54
2022/05/30 05:10:39;;;;;;;;;;;10.70;1.00;;;;;;10286220;28;86210;-56
2022/05/30 05:15:58;;;;;;;;;;;10.80;1.00;;;;;;10287457;28;83999;-53
2022/05/30 05:21:07;;;;;;;;;;;10.90;1.00;;;;;;10284636;28;85938;-54
2022/05/30 05:26:08;;;;;;;;;;;10.90;1.00;;;;;;10284665;28;86543;-54
2022/05/30 05:31:34;;;;;;;;;;;11.00;1.00;;;;;;10282790;28;85712;-52
2022/05/30 05:36:38;;;;;;;;;;;11.00;1.00;;;;;;10284607;28;86025;-54
2022/05/30 05:41:43;;;;;;;;;;;11.00;1.00;;;;;;10282985;28;84621;-52
2022/05/30 05:46:46;;;;;;;;;;;11.20;1.00;;;;;;10284506;28;85638;-52
2022/05/30 05:51:50;;;;;;;;;;;11.40;1.00;;;;;;10284470;28;85976;-51
2022/05/30 05:56:51;;;;;;;;;;;11.50;1.00;;;;;;10284500;28;86669;-52
2022/05/30 06:02:01;;;;;;;;;;;11.50;1.00;;;;;;10282225;28;86923;-52
2022/05/30 06:07:02;;;;;;;;;;;11.70;1.00;;;;;;10284178;28;86591;-51
2022/05/30 06:12:15;;;;;;;;;;;11.70;1.00;;;;;;10283698;28;86674;-51
2022/05/30 06:17:16;;;;;;;;;;;11.90;1.00;;;;;;10286541;28;86543;-48
2022/05/30 06:22:17;;;;;;;;;;;11.80;1.00;;;;;;10290095;28;86182;-48
2022/05/30 06:27:20;;;;;;;;;;;12.00;1.00;;;;;;10290740;28;85219;-52
2022/05/30 06:32:39;;;;;;;;;;;12.20;1.00;;;;;;10288430;28;85947;-48
2022/05/30 06:37:43;;;;;;;;;;;12.10;1.00;;;;;;10289267;28;86729;-49
2022/05/30 06:42:45;;;;;;;;;;;12.20;1.00;;;;;;10288870;28;86312;-48
2022/05/30 06:48:12;;;;;;;;;;;12.50;1.00;;;;;;10289218;28;85558;-49
2022/05/30 06:53:40;;;;;;;;;;;12.80;99.90;;;;;;10291564;28;84215;-48
2022/05/30 06:58:43;;;;;;;;;;;12.60;99.90;;;;;;10286402;28;86892;-47
2022/05/30 07:03:45;;;;;;;;;;;12.70;99.90;;;;;;10288252;28;84742;-51
2022/05/30 07:09:06;;;;;;;;;;;13.10;99.90;;;;;;10288809;28;84514;-52
2022/05/30 07:14:20;;;;;;;;;;;13.60;79.60;;;;;;10287371;28;86109;-52
2022/05/30 07:19:22;;;;;;;;;;;14.10;1.00;;;;;;10288507;28;86987;-50
2022/05/30 07:24:29;;;;;;;;;;;14.10;99.90;;;;;;10286944;28;86968;-55
2022/05/30 07:29:49;;;;;;;;;;;14.40;1.00;;;;;;10283558;28;84851;-55
2022/05/30 07:35:08;;;;;;;;;;;14.50;99.90;;;;;;10286819;28;84249;-55
2022/05/30 07:40:08;;;;;;;;;;;14.00;99.90;;;;;;10288181;28;84739;-49
2022/05/30 07:45:24;;;;;;;;;;;13.90;45.10;;;;;;10286955;28;87051;-51
2022/05/30 07:50:33;;;;;;;;;;;14.00;99.90;;;;;;10287123;28;86910;-49
2022/05/30 07:55:39;;;;;;;;;;;14.10;1.00;;;;;;10286985;28;85186;-50
2022/05/30 08:00:40;;;;;;;;;;;14.20;1.00;;;;;;10284145;28;86509;-50
2022/05/30 08:05:48;;;;;;;;;;;14.40;1.00;;;;;;10282321;28;87027;-49
2022/05/30 08:11:18;;;;;;;;;;;15.00;1.00;;;;;;10281926;28;85655;-53
2022/05/30 08:16:25;;;;;;;;;;;15.50;1.00;;;;;;10284294;28;86688;-49
2022/05/30 08:21:25;;;;;;;;;;;15.10;99.90;;;;;;10283979;28;85866;-52
2022/05/30 08:26:27;;;;;;;;;;;15.50;99.90;;;;;;10282850;28;86097;-51
2022/05/30 08:31:50;;;;;;;;;;;15.20;1.00;;;;;;10283080;28;85201;-50
2022/05/30 08:37:14;;;;;;;;;;;15.40;99.90;;;;;;10280605;28;85623;-51
2022/05/30 08:42:16;;;;;;;;;;;15.60;99.90;;;;;;10280181;28;85904;-53
2022/05/30 08:47:56;;;;;;;;;;;15.40;99.90;;;;;;10282121;22;84806;-51
2022/05/30 08:53:12;;;;;;;;;;;15.60;1.00;;;;;;10242232;28;86001;-48
2022/05/30 08:58:35;;;;;;;;;;;16.60;1.00;;;;;;10226870;28;85386;-51
2022/05/30 09:03:38;;;;;;;;;;;17.50;1.00;;;;;;10237111;28;86891;-47
2022/05/30 09:08:42;;;;;;;;;;;18.60;1.00;;;;;;10236988;28;85969;-50
2022/05/30 09:14:31;;;;;;;;;;;17.70;1.00;;;;;;10248848;28;85617;-48
2022/05/30 09:19:32;;;;;;;;;;;16.90;1.00;;;;;;10225480;28;86110;-49
2022/05/30 09:24:35;;;;;;;;;;;18.20;1.00;;;;;;10248107;28;106010;-47
2022/05/30 09:29:51;;;;;;;;;;;18.70;1.00;;;;;;10246802;28;85623;-48
2022/05/30 09:35:18;;;;;;;;;;;18.30;1.00;;;;;;10243553;28;84124;-46
2022/05/30 09:40:42;;;;;;;;;;;17.80;1.00;;;;;;10244791;28;84431;-46
2022/05/30 09:45:47;;;;;;;;;;;17.20;1.00;;;;;;10245970;28;84749;-48
2022/05/30 09:51:28;;;;;;;;;;;16.60;1.00;;;;;;10262867;28;84735;-51
2022/05/30 09:56:29;;;;;;;;;;;16.50;1.00;;;;;;10244964;28;86735;-50
2022/05/30 10:01:35;;;;;;;;;;;16.50;1.00;;;;;;10245967;28;86156;-52
2022/05/30 10:06:36;;;;;;;;;;;15.90;1.00;;;;;;10247901;28;85677;-49
2022/05/30 10:11:56;;;;;;;;;;;15.20;99.90;;;;;;10237081;28;85647;-48
2022/05/30 10:16:59;;;;;;;;;;;14.70;99.90;;;;;;10227531;28;86003;-50
2022/05/30 10:28:15;;;;;;;;;;;14.40;99.90;;;;;;10273011;28;84336;-47
2022/05/30 10:33:50;;;;;;;;;;;14.40;1.00;;;;;;10262118;28;85031;-47
2022/05/30 10:39:07;;;;;;;;;;;14.30;1.00;;;;;;10246256;28;85876;-47
2022/05/30 10:44:10;;;;;;;;;;;14.40;99.90;;;;;;10244340;28;86886;-46
2022/05/30 10:49:13;;;;;;;;;;;14.50;1.00;;;;;;10265087;28;85858;-48
2022/05/30 10:54:27;;;;;;;;;;;14.50;1.00;;;;;;10264116;28;86957;-46
2022/05/30 10:59:37;;;;;;;;;;;14.70;99.90;;;;;;10251653;28;85960;-46
2022/05/30 11:04:49;;;;;;;;;;;14.60;1.00;;;;;;10287968;28;86720;-49
2022/05/30 11:09:54;;;;;;;;;;;14.80;1.00;;;;;;10289482;28;84939;-46
2022/05/30 11:15:15;;;;;;;;;;;15.10;1.00;;;;;;10274110;28;87325;-47
2022/05/30 11:21:00;;;;;;;;;;;15.60;1.00;;;;;;10237736;28;84389;-46
2022/05/30 11:26:16;;;;;;;;;;;16.10;1.00;;;;;;10275622;28;86752;-48
2022/05/30 11:31:22;;;;;;;;;;;16.20;1.00;;;;;;10298934;28;84301;-46
2022/05/30 11:36:43;;;;;;;;;;;16.70;99.90;;;;;;10291630;28;85794;-47
2022/05/30 11:42:10;;;;;;;;;;;16.70;1.00;;;;;;10315699;28;84272;-47
2022/05/30 11:47:13;;;;;;;;;;;16.40;99.90;;;;;;10284171;28;85110;-51
2022/05/30 11:52:23;;;;;;;;;;;16.30;99.90;;;;;;10289683;28;84935;-48
2022/05/30 11:57:42;;;;;;;;;;;16.60;1.00;;;;;;10275104;28;86993;-48
2022/05/30 12:02:58;;;;;;;;;;;16.80;99.90;;;;;;10292841;28;84624;-49
2022/05/30 12:08:08;;;;;;;;;;;17.00;99.90;;;;;;10293599;28;84583;-53
2022/05/30 12:13:27;;;;;;;;;;;16.70;99.90;;;;;;10290959;28;84987;-49
2022/05/30 12:24:02;;;;;;;;;;;16.60;99.90;;;;;;10291362;28;84772;-50
2022/05/30 12:29:03;;;;;;;;;;;16.40;99.90;;;;;;10292217;28;85507;-48
2022/05/30 12:34:06;;;;;;;;;;;16.30;99.90;;;;;;10290031;28;84258;-49
2022/05/30 12:39:26;;;;;;;;;;;16.50;99.90;;;;;;10287697;28;85331;-49
2022/05/30 12:44:42;;;;;;;;;;;17.10;99.90;;;;;;10286293;28;85355;-50
2022/05/30 12:49:47;;;;;;;;;;;17.00;99.90;;;;;;10286849;28;84413;-44
2022/05/30 12:54:48;;;;;;;;;;;16.90;99.90;;;;;;10284994;28;84306;-49
2022/05/30 13:00:06;;;;;;;;;;;17.50;94.90;;;;;;10285452;28;85308;-49
2022/05/30 13:05:16;;;;;;;;;;;17.40;1.00;;;;;;10267741;28;86426;-49
2022/05/30 13:10:16;;;;;;;;;;;17.10;1.00;;;;;;10287461;28;84736;-49
2022/05/30 13:15:23;;;;;;;;;;;17.50;1.00;;;;;;10268023;28;86891;-46
2022/05/30 13:20:28;;;;;;;;;;;17.40;1.00;;;;;;10297881;28;84945;-48
2022/05/30 13:25:33;;;;;;;;;;;17.40;99.90;;;;;;10297385;28;85100;-49
2022/05/30 13:30:34;;;;;;;;;;;17.70;99.90;;;;;;10297861;28;84774;-53
2022/05/30 13:35:36;;;;;;;;;;;17.90;99.90;;;;;;10279891;28;84115;-50
2022/05/30 13:40:38;;;;;;;;;;;17.90;9.40;;;;;;10257361;28;86064;-46
2022/05/30 13:45:41;;;;;;;;;;;18.00;1.00;;;;;;10291170;28;84413;-51
2022/05/30 13:50:46;;;;;;;;;;;18.10;1.00;;;;;;10290269;28;84913;-49
2022/05/30 13:55:53;;;;;;;;;;;17.80;1.00;;;;;;10266902;28;84200;-50
2022/05/30 14:00:54;;;;;;;;;;;17.70;1.00;;;;;;10285714;28;84218;-52
2022/05/30 14:05:54;;;;;;;;;;;17.80;1.00;;;;;;10293471;28;84856;-51
2022/05/30 14:10:58;;;;;;;;;;;17.70;1.00;;;;;;10300203;28;85199;-47
2022/05/30 14:16:00;;;;;;;;;;;17.70;1.00;;;;;;10312176;28;84744;-50
2022/05/30 14:21:05;;;;;;;;;;;17.50;1.00;;;;;;10300060;28;85263;-48
2022/05/30 14:26:09;;;;;;;;;;;17.70;1.00;;;;;;10309520;28;84960;-47
2022/05/30 14:31:12;;;;;;;;;;;17.20;1.00;;;;;;10291552;28;84207;-53
2022/05/30 14:36:27;;;;;;;;;;;17.40;99.90;;;;;;10275017;28;87309;-51
2022/05/30 14:41:32;;;;;;;;;;;17.40;99.90;;;;;;10310476;28;85059;-47
2022/05/30 14:46:37;;;;;;;;;;;17.30;99.90;;;;;;10335584;22;84781;-54
2022/05/30 14:51:42;;;;;;;;;;;17.40;6.00;;;;;;10301008;28;84530;-52
2022/05/30 14:56:44;;;;;;;;;;;17.40;1.00;;;;;;10309635;28;84958;-55
2022/05/30 15:01:45;;;;;;;;;;;17.30;75.50;;;;;;10321700;28;84176;-54
2022/05/30 15:06:56;;;;;;;;;;;17.20;99.90;;;;;;10283543;28;87102;-53
2022/05/30 15:11:57;;;;;;;;;;;16.90;99.90;;;;;;10319283;28;84208;-52
2022/05/30 15:16:58;;;;;;;;;;;16.90;99.90;;;;;;10318226;28;84844;-56
2022/05/30 15:22:01;;;;;;;;;;;16.90;99.90;;;;;;10317256;28;84881;-51
2022/05/30 15:27:02;;;;;;;;;;;16.80;99.90;;;;;;10294026;28;85250;-55
2022/05/30 15:32:04;;;;;;;;;;;16.50;99.90;;;;;;10293246;28;84131;-56
2022/05/30 15:37:05;;;;;;;;;;;16.40;99.90;;;;;;10290147;28;84948;-54
2022/05/30 15:42:07;;;;;;;;;;;16.40;1.00;;;;;;10288476;28;86983;-55
2022/05/30 15:47:08;;;;;;;;;;;16.50;1.00;;;;;;10293494;28;85237;-54
2022/05/30 15:52:14;;;;;;;;;;;16.40;1.00;;;;;;10303503;28;84803;-53
2022/05/30 15:57:18;;;;;;;;;;;16.50;1.00;;;;;;10318067;28;84802;-54
2022/05/30 16:02:20;;;;;;;;;;;16.40;1.00;;;;;;10289435;28;84125;-54
2022/05/30 16:07:21;;;;;;;;;;;16.20;1.00;;;;;;10272768;28;87178;-61
2022/05/30 16:12:24;;;;;;;;;;;16.00;1.00;;;;;;10292195;28;84260;-52
2022/05/30 16:17:25;;;;;;;;;;;16.10;1.00;;;;;;10255172;28;84275;-53
2022/05/30 16:22:28;;;;;;;;;;;16.20;1.00;;;;;;10289211;28;84183;-55
2022/05/30 16:27:29;;;;;;;;;;;16.10;1.00;;;;;;10284694;28;84253;-52
2022/05/30 16:32:30;;;;;;;;;;;15.90;1.00;;;;;;10288818;28;84928;-55
2022/05/30 16:37:30;;;;;;;;;;;15.90;1.00;;;;;;10291613;28;84921;-55
2022/05/30 16:42:31;;;;;;;;;;;15.80;1.00;;;;;;10282271;28;85486;-55
2022/05/30 16:47:32;;;;;;;;;;;15.80;1.00;;;;;;10287461;28;84873;-56
2022/05/30 16:52:32;;;;;;;;;;;15.70;1.00;;;;;;10271133;28;84933;-56
2022/05/30 16:57:33;;;;;;;;;;;15.50;1.00;;;;;;10292334;28;84748;-53
2022/05/30 17:02:33;;;;;;;;;;;15.60;1.00;;;;;;10302473;28;84288;-51
2022/05/30 17:07:34;;;;;;;;;;;15.60;1.00;;;;;;10299540;28;84963;-57
2022/05/30 17:12:35;;;;;;;;;;;15.80;1.00;;;;;;10284694;28;84222;-56
2022/05/30 17:17:35;;;;;;;;;;;15.80;1.00;;;;;;10286457;28;85143;-55
2022/05/30 17:22:36;;;;;;;;;;;15.80;1.00;;;;;;10283966;28;85282;-55
2022/05/30 17:32:56;;;;;;;;;;;15.80;1.00;;;;;;10318173;28;84234;-54
2022/05/30 17:37:57;;;;;;;;;;;15.70;1.00;;;;;;10313357;28;85333;-56
2022/05/30 17:42:58;;;;;;;;;;;15.70;1.00;;;;;;10318062;28;84699;-55
2022/05/30 17:48:11;;;;;;;;;;;15.60;1.00;;;;;;10306930;28;84917;-54
2022/05/30 17:53:12;;;;;;;;;;;15.60;1.00;;;;;;10299590;28;84135;-55
2022/05/30 17:58:13;;;;;;;;;;;15.50;1.00;;;;;;10298727;28;85018;-55
2022/05/30 18:03:13;;;;;;;;;;;15.50;1.00;;;;;;10296163;28;85387;-56
2022/05/30 18:08:23;;;;;;;;;;;15.40;48.30;;;;;;10304675;28;84771;-57
2022/05/30 18:13:45;;;;;;;;;;;15.30;99.90;;;;;;10288156;28;86948;-54
2022/05/30 18:24:26;;;;;;;;;;;15.20;99.90;;;;;;10309410;28;84682;-56
2022/05/30 18:29:27;;;;;;;;;;;15.00;99.90;;;;;;10283807;28;85966;-57
2022/05/30 18:34:34;;;;;;;;;;;15.00;99.90;;;;;;10298418;28;84248;-55
2022/05/30 18:39:34;;;;;;;;;;;15.00;1.00;;;;;;10299201;28;84288;-57
2022/05/30 18:44:42;;;;;;;;;;;14.80;1.00;;;;;;10302015;28;84333;-56
2022/05/30 18:49:43;;;;;;;;;;;14.70;1.00;;;;;;10281511;28;84357;-54
2022/05/30 18:54:44;;;;;;;;;;;14.60;99.90;;;;;;10331746;28;84310;-55
2022/05/30 18:59:56;;;;;;;;;;;14.50;99.90;;;;;;10328729;28;84253;-53
2022/05/30 19:04:57;;;;;;;;;;;14.40;1.00;;;;;;10296589;28;84352;-57
2022/05/30 19:09:57;;;;;;;;;;;14.30;99.90;;;;;;10311751;28;86076;-56
2022/05/30 19:20:23;;;;;;;;;;;14.20;1.00;;;;;;10309432;28;84947;-54
2022/05/30 19:25:26;;;;;;;;;;;14.10;1.00;;;;;;10302047;28;84356;-53
2022/05/30 19:30:28;;;;;;;;;;;14.00;40.20;;;;;;10278304;28;86003;-54
2022/05/30 19:35:32;;;;;;;;;;;13.90;99.90;;;;;;10287419;28;84415;-54
2022/05/30 19:40:38;;;;;;;;;;;13.90;1.00;;;;;;10287454;28;84983;-53
2022/05/30 19:45:39;;;;;;;;;;;13.80;1.00;;;;;;10288265;28;84999;-52
2022/05/30 19:50:40;;;;;;;;;;;13.80;1.00;;;;;;10285402;28;84894;-56
2022/05/30 19:55:43;;;;;;;;;;;13.80;1.00;;;;;;10282138;28;85259;-51
2022/05/30 20:00:44;;;;;;;;;;;13.60;99.90;;;;;;10266609;28;85147;-56
2022/05/30 20:05:45;;;;;;;;;;;13.50;1.00;;;;;;10284066;28;84743;-55
2022/05/30 20:10:45;;;;;;;;;;;13.40;1.00;;;;;;10273320;28;84778;-55
2022/05/30 20:15:46;;;;;;;;;;;13.40;4.90;;;;;;10288831;28;84962;-55
2022/05/30 20:20:46;;;;;;;;;;;13.30;99.90;;;;;;10285772;28;84942;-56
2022/05/30 20:25:47;;;;;;;;;;;13.20;99.90;;;;;;10267513;28;84812;-57
2022/05/30 20:30:48;;;;;;;;;;;13.10;99.90;;;;;;10286446;28;84036;-57
2022/05/30 20:35:48;;;;;;;;;;;13.00;99.90;;;;;;10261878;28;84221;-56
2022/05/30 20:46:09;;;;;;;;;;;12.90;99.90;;;;;;10299402;22;85003;-50
2022/05/30 20:51:09;;;;;;;;;;;12.80;99.90;;;;;;10299883;28;84590;-50
2022/05/30 20:56:10;;;;;;;;;;;12.80;99.90;;;;;;10297309;28;84972;-47
2022/05/30 21:01:11;;;;;;;;;;;12.80;99.90;;;;;;10286896;28;85092;-53
2022/05/30 21:06:13;;;;;;;;;;;12.70;99.90;;;;;;10283829;28;87408;-53
2022/05/30 21:11:14;;;;;;;;;;;12.60;99.90;;;;;;10282391;28;84152;-50
2022/05/30 21:16:20;;;;;;;;;;;12.50;99.90;;;;;;10284089;28;84076;-52
2022/05/30 21:21:22;;;;;;;;;;;12.50;99.90;;;;;;10280077;28;85007;-49
2022/05/30 21:26:23;;;;;;;;;;;12.40;99.90;;;;;;10277126;28;84143;-51
2022/05/30 21:31:26;;;;;;;;;;;12.40;99.90;;;;;;10278760;28;84532;-52
2022/05/30 21:36:47;;;;;;;;;;;12.40;1.00;;;;;;10284261;28;84895;-55
2022/05/30 21:41:47;;;;;;;;;;;12.30;1.00;;;;;;10270828;28;84972;-49
2022/05/30 21:46:48;;;;;;;;;;;12.10;1.00;;;;;;10271719;28;84916;-49
2022/05/30 21:51:49;;;;;;;;;;;12.00;1.00;;;;;;10284727;28;84888;-50
2022/05/30 21:57:49;;;;;;;;;;;12.00;1.00;;;;;;10284370;28;84373;-51
2022/05/30 22:02:10;;;;;;;;;;;11.90;1.00;;;;;;10283964;28;85277;-53
2022/05/30 22:07:11;;;;;;;;;;;11.70;1.00;;;;;;10285281;28;84288;-54
2022/05/30 22:12:11;;;;;;;;;;;11.60;1.00;;;;;;10266525;28;85143;-49
2022/05/30 22:17:12;;;;;;;;;;;11.50;1.00;;;;;;10284596;28;84969;-50
2022/05/30 22:22:12;;;;;;;;;;;11.50;1.00;;;;;;10266805;28;86052;-50
2022/05/30 22:27:13;;;;;;;;;;;11.40;1.00;;;;;;10284652;28;84938;-54
2022/05/30 22:32:14;;;;;;;;;;;11.40;1.00;;;;;;10283834;28;84742;-55
2022/05/30 22:37:14;;;;;;;;;;;11.40;1.00;;;;;;10282209;28;85055;-54
2022/05/30 22:42:15;;;;;;;;;;;11.30;1.00;;;;;;10263539;28;84744;-53
2022/05/30 22:47:15;;;;;;;;;;;11.20;1.00;;;;;;10273083;28;84236;-49
2022/05/30 22:52:16;;;;;;;;;;;11.20;1.00;;;;;;10280672;28;84908;-52
2022/05/30 22:57:17;;;;;;;;;;;11.20;1.00;;;;;;10285660;28;84876;-51
2022/05/30 23:02:18;;;;;;;;;;;11.10;1.00;;;;;;10290748;28;84140;-52
2022/05/30 23:07:18;;;;;;;;;;;11.10;1.00;;;;;;10276824;28;84184;-53
2022/05/30 23:12:19;;;;;;;;;;;11.00;1.00;;;;;;10289711;28;84942;-49
2022/05/30 23:17:21;;;;;;;;;;;10.90;1.00;;;;;;10290717;28;84444;-49
2022/05/30 23:22:22;;;;;;;;;;;10.90;1.00;;;;;;10289554;28;84978;-49
2022/05/30 23:27:24;;;;;;;;;;;10.90;1.00;;;;;;10290082;28;84767;-50
2022/05/30 23:32:24;;;;;;;;;;;10.80;1.00;;;;;;10289798;28;84979;-55
2022/05/30 23:37:25;;;;;;;;;;;10.70;1.00;;;;;;10287287;28;84125;-52
2022/05/30 23:47:45;;;;;;;;;;;10.60;1.00;;;;;;10289259;28;84895;-50
2022/05/30 23:52:45;;;;;;;;;;;10.50;1.00;;;;;;10270362;28;86839;-49
2022/05/30 23:57:46;;;;;;;;;;;10.40;1.00;;;;;;10269639;28;84930;-53
